sensor_id;sensor_type;location;lat;lon;timestamp;P1;durP1;ratioP1;P2;durP2;ratioP2
57309;SDS011;43153;50.984;18.204;2023-08-24T00:00:23;11.00;;;3.80;;
57309;SDS011;43153;50.984;18.204;2023-08-24T00:02:49;11.60;;;3.90;;
57309;SDS011;43153;50.984;18.204;2023-08-24T00:05:16;9.90;;;3.50;;
57309;SDS011;43153;50.984;18.204;2023-08-24T00:07:42;10.80;;;3.30;;
57309;SDS011;43153;50.984;18.204;2023-08-24T00:10:08;9.30;;;3.40;;
57309;SDS011;43153;50.984;18.204;2023-08-24T00:12:35;11.10;;;3.70;;
57309;SDS011;43153;50.984;18.204;2023-08-24T00:15:03;10.50;;;3.60;;
57309;SDS011;43153;50.984;18.204;2023-08-24T00:17:30;10.40;;;4.60;;
57309;SDS011;43153;50.984;18.204;2023-08-24T00:19:56;9.10;;;3.30;;
57309;SDS011;43153;50.984;18.204;2023-08-24T00:22:22;8.90;;;3.20;;
57309;SDS011;43153;50.984;18.204;2023-08-24T00:24:48;8.60;;;3.40;;
57309;SDS011;43153;50.984;18.204;2023-08-24T00:27:16;10.60;;;3.10;;
57309;SDS011;43153;50.984;18.204;2023-08-24T00:29:42;12.30;;;3.10;;
57309;SDS011;43153;50.984;18.204;2023-08-24T00:32:10;10.20;;;3.50;;
57309;SDS011;43153;50.984;18.204;2023-08-24T00:34:37;9.40;;;2.90;;
57309;SDS011;43153;50.984;18.204;2023-08-24T00:37:03;6.90;;;2.80;;
57309;SDS011;43153;50.984;18.204;2023-08-24T00:39:29;8.70;;;2.90;;
57309;SDS011;43153;50.984;18.204;2023-08-24T00:41:57;9.20;;;3.80;;
57309;SDS011;43153;50.984;18.204;2023-08-24T00:44:24;14.00;;;3.90;;
57309;SDS011;43153;50.984;18.204;2023-08-24T00:46:51;7.40;;;3.00;;
57309;SDS011;43153;50.984;18.204;2023-08-24T00:49:17;10.10;;;3.00;;
57309;SDS011;43153;50.984;18.204;2023-08-24T00:51:44;11.90;;;3.80;;
57309;SDS011;43153;50.984;18.204;2023-08-24T00:54:11;8.10;;;3.30;;
57309;SDS011;43153;50.984;18.204;2023-08-24T00:56:42;7.00;;;2.80;;
57309;SDS011;43153;50.984;18.204;2023-08-24T00:59:09;10.60;;;3.60;;
57309;SDS011;43153;50.984;18.204;2023-08-24T01:01:36;8.70;;;3.10;;
57309;SDS011;43153;50.984;18.204;2023-08-24T01:04:04;8.40;;;3.30;;
57309;SDS011;43153;50.984;18.204;2023-08-24T01:06:30;10.60;;;3.30;;
57309;SDS011;43153;50.984;18.204;2023-08-24T01:08:56;10.10;;;3.60;;
57309;SDS011;43153;50.984;18.204;2023-08-24T01:11:42;11.10;;;4.30;;
57309;SDS011;43153;50.984;18.204;2023-08-24T01:14:43;15.10;;;3.90;;
57309;SDS011;43153;50.984;18.204;2023-08-24T01:17:29;11.90;;;3.80;;
57309;SDS011;43153;50.984;18.204;2023-08-24T01:19:55;12.70;;;4.20;;
57309;SDS011;43153;50.984;18.204;2023-08-24T01:25:12;14.20;;;4.60;;
57309;SDS011;43153;50.984;18.204;2023-08-24T01:27:42;11.60;;;4.10;;
57309;SDS011;43153;50.984;18.204;2023-08-24T01:30:09;10.70;;;4.10;;
57309;SDS011;43153;50.984;18.204;2023-08-24T01:32:38;13.10;;;4.80;;
57309;SDS011;43153;50.984;18.204;2023-08-24T01:35:05;7.90;;;3.50;;
57309;SDS011;43153;50.984;18.204;2023-08-24T01:37:33;9.20;;;3.40;;
57309;SDS011;43153;50.984;18.204;2023-08-24T01:40:12;9.90;;;4.00;;
57309;SDS011;43153;50.984;18.204;2023-08-24T01:45:09;11.00;;;4.00;;
57309;SDS011;43153;50.984;18.204;2023-08-24T01:47:42;10.60;;;3.80;;
57309;SDS011;43153;50.984;18.204;2023-08-24T01:50:10;8.80;;;4.30;;
57309;SDS011;43153;50.984;18.204;2023-08-24T01:52:36;14.30;;;3.60;;
57309;SDS011;43153;50.984;18.204;2023-08-24T01:55:05;9.70;;;3.60;;
57309;SDS011;43153;50.984;18.204;2023-08-24T01:57:31;7.20;;;3.10;;
57309;SDS011;43153;50.984;18.204;2023-08-24T01:59:58;9.80;;;3.50;;
57309;SDS011;43153;50.984;18.204;2023-08-24T02:02:24;10.90;;;3.10;;
57309;SDS011;43153;50.984;18.204;2023-08-24T02:04:50;10.30;;;3.40;;
57309;SDS011;43153;50.984;18.204;2023-08-24T02:07:17;12.00;;;4.60;;
57309;SDS011;43153;50.984;18.204;2023-08-24T02:09:43;18.30;;;3.60;;
57309;SDS011;43153;50.984;18.204;2023-08-24T02:12:11;11.10;;;3.70;;
57309;SDS011;43153;50.984;18.204;2023-08-24T02:14:40;8.70;;;3.40;;
57309;SDS011;43153;50.984;18.204;2023-08-24T02:17:07;11.00;;;3.70;;
57309;SDS011;43153;50.984;18.204;2023-08-24T02:19:35;9.10;;;2.90;;
57309;SDS011;43153;50.984;18.204;2023-08-24T02:22:01;8.90;;;3.20;;
57309;SDS011;43153;50.984;18.204;2023-08-24T02:24:31;9.10;;;3.30;;
57309;SDS011;43153;50.984;18.204;2023-08-24T02:26:57;9.90;;;3.50;;
57309;SDS011;43153;50.984;18.204;2023-08-24T02:29:23;8.90;;;3.60;;
57309;SDS011;43153;50.984;18.204;2023-08-24T02:31:49;8.80;;;3.00;;
57309;SDS011;43153;50.984;18.204;2023-08-24T02:34:17;7.50;;;3.40;;
57309;SDS011;43153;50.984;18.204;2023-08-24T02:36:43;9.00;;;3.60;;
57309;SDS011;43153;50.984;18.204;2023-08-24T02:39:11;13.90;;;3.20;;
57309;SDS011;43153;50.984;18.204;2023-08-24T02:41:39;10.30;;;3.00;;
57309;SDS011;43153;50.984;18.204;2023-08-24T02:44:04;9.20;;;3.20;;
57309;SDS011;43153;50.984;18.204;2023-08-24T02:46:31;7.50;;;3.20;;
57309;SDS011;43153;50.984;18.204;2023-08-24T02:48:57;9.10;;;3.20;;
57309;SDS011;43153;50.984;18.204;2023-08-24T02:51:23;10.80;;;3.20;;
57309;SDS011;43153;50.984;18.204;2023-08-24T02:53:50;11.10;;;3.50;;
57309;SDS011;43153;50.984;18.204;2023-08-24T02:56:17;9.10;;;3.50;;
57309;SDS011;43153;50.984;18.204;2023-08-24T02:58:45;10.00;;;3.60;;
57309;SDS011;43153;50.984;18.204;2023-08-24T03:01:11;9.70;;;3.70;;
57309;SDS011;43153;50.984;18.204;2023-08-24T03:03:37;8.60;;;3.40;;
57309;SDS011;43153;50.984;18.204;2023-08-24T03:06:04;11.90;;;3.50;;
57309;SDS011;43153;50.984;18.204;2023-08-24T03:08:32;9.40;;;3.40;;
57309;SDS011;43153;50.984;18.204;2023-08-24T03:10:59;10.70;;;3.90;;
57309;SDS011;43153;50.984;18.204;2023-08-24T03:13:29;8.80;;;4.30;;
57309;SDS011;43153;50.984;18.204;2023-08-24T03:15:56;13.90;;;3.90;;
57309;SDS011;43153;50.984;18.204;2023-08-24T03:18:29;14.10;;;3.60;;
57309;SDS011;43153;50.984;18.204;2023-08-24T03:20:55;11.40;;;3.90;;
57309;SDS011;43153;50.984;18.204;2023-08-24T03:23:21;10.90;;;3.60;;
57309;SDS011;43153;50.984;18.204;2023-08-24T03:25:48;10.40;;;3.30;;
57309;SDS011;43153;50.984;18.204;2023-08-24T03:28:14;9.80;;;3.60;;
57309;SDS011;43153;50.984;18.204;2023-08-24T03:30:47;9.60;;;3.40;;
57309;SDS011;43153;50.984;18.204;2023-08-24T03:33:14;10.20;;;3.80;;
57309;SDS011;43153;50.984;18.204;2023-08-24T03:35:41;9.20;;;3.60;;
57309;SDS011;43153;50.984;18.204;2023-08-24T03:38:08;12.00;;;3.60;;
57309;SDS011;43153;50.984;18.204;2023-08-24T03:40:35;10.00;;;3.30;;
57309;SDS011;43153;50.984;18.204;2023-08-24T03:43:02;8.00;;;3.10;;
57309;SDS011;43153;50.984;18.204;2023-08-24T03:45:28;16.20;;;3.90;;
57309;SDS011;43153;50.984;18.204;2023-08-24T03:47:55;9.70;;;3.10;;
57309;SDS011;43153;50.984;18.204;2023-08-24T03:50:23;7.70;;;3.20;;
57309;SDS011;43153;50.984;18.204;2023-08-24T03:52:51;22.50;;;4.10;;
57309;SDS011;43153;50.984;18.204;2023-08-24T03:55:20;12.20;;;3.60;;
57309;SDS011;43153;50.984;18.204;2023-08-24T03:57:46;8.30;;;2.60;;
57309;SDS011;43153;50.984;18.204;2023-08-24T04:00:12;13.20;;;3.10;;
57309;SDS011;43153;50.984;18.204;2023-08-24T04:02:43;10.60;;;4.00;;
57309;SDS011;43153;50.984;18.204;2023-08-24T04:05:09;12.70;;;4.10;;
57309;SDS011;43153;50.984;18.204;2023-08-24T04:07:35;8.90;;;3.50;;
57309;SDS011;43153;50.984;18.204;2023-08-24T04:10:05;9.90;;;3.40;;
57309;SDS011;43153;50.984;18.204;2023-08-24T04:12:32;8.20;;;3.00;;
57309;SDS011;43153;50.984;18.204;2023-08-24T04:14:59;8.90;;;3.50;;
57309;SDS011;43153;50.984;18.204;2023-08-24T04:17:25;9.90;;;3.60;;
57309;SDS011;43153;50.984;18.204;2023-08-24T04:19:50;9.50;;;4.20;;
57309;SDS011;43153;50.984;18.204;2023-08-24T04:22:18;9.00;;;3.70;;
57309;SDS011;43153;50.984;18.204;2023-08-24T04:24:44;13.50;;;4.40;;
57309;SDS011;43153;50.984;18.204;2023-08-24T04:27:12;7.60;;;3.40;;
57309;SDS011;43153;50.984;18.204;2023-08-24T04:29:38;8.70;;;3.70;;
57309;SDS011;43153;50.984;18.204;2023-08-24T04:32:06;11.20;;;3.90;;
57309;SDS011;43153;50.984;18.204;2023-08-24T04:34:34;17.00;;;5.20;;
57309;SDS011;43153;50.984;18.204;2023-08-24T04:37:02;14.60;;;5.90;;
57309;SDS011;43153;50.984;18.204;2023-08-24T04:39:29;13.40;;;5.90;;
57309;SDS011;43153;50.984;18.204;2023-08-24T04:42:00;10.30;;;5.60;;
57309;SDS011;43153;50.984;18.204;2023-08-24T04:46:57;13.90;;;5.50;;
57309;SDS011;43153;50.984;18.204;2023-08-24T04:49:24;14.50;;;5.50;;
57309;SDS011;43153;50.984;18.204;2023-08-24T04:51:51;19.00;;;7.50;;
57309;SDS011;43153;50.984;18.204;2023-08-24T04:54:17;19.20;;;5.80;;
57309;SDS011;43153;50.984;18.204;2023-08-24T04:56:43;14.60;;;5.10;;
57309;SDS011;43153;50.984;18.204;2023-08-24T04:59:09;14.10;;;5.20;;
57309;SDS011;43153;50.984;18.204;2023-08-24T05:01:36;15.40;;;5.80;;
57309;SDS011;43153;50.984;18.204;2023-08-24T05:04:02;16.80;;;5.80;;
57309;SDS011;43153;50.984;18.204;2023-08-24T05:06:31;12.40;;;5.80;;
57309;SDS011;43153;50.984;18.204;2023-08-24T05:08:57;22.20;;;5.50;;
57309;SDS011;43153;50.984;18.204;2023-08-24T05:11:23;18.40;;;7.50;;
57309;SDS011;43153;50.984;18.204;2023-08-24T05:13:53;27.30;;;10.20;;
57309;SDS011;43153;50.984;18.204;2023-08-24T05:16:19;22.20;;;10.20;;
57309;SDS011;43153;50.984;18.204;2023-08-24T05:18:45;20.50;;;9.60;;
57309;SDS011;43153;50.984;18.204;2023-08-24T05:21:12;20.20;;;8.20;;
57309;SDS011;43153;50.984;18.204;2023-08-24T05:23:38;16.10;;;6.50;;
57309;SDS011;43153;50.984;18.204;2023-08-24T05:26:03;15.90;;;5.90;;
57309;SDS011;43153;50.984;18.204;2023-08-24T05:28:30;13.80;;;5.30;;
57309;SDS011;43153;50.984;18.204;2023-08-24T05:30:56;10.90;;;5.60;;
57309;SDS011;43153;50.984;18.204;2023-08-24T05:33:23;12.50;;;6.10;;
57309;SDS011;43153;50.984;18.204;2023-08-24T05:35:50;11.70;;;5.30;;
57309;SDS011;43153;50.984;18.204;2023-08-24T05:38:16;32.80;;;7.20;;
57309;SDS011;43153;50.984;18.204;2023-08-24T05:40:47;13.90;;;6.70;;
57309;SDS011;43153;50.984;18.204;2023-08-24T05:45:41;18.60;;;8.20;;
57309;SDS011;43153;50.984;18.204;2023-08-24T05:48:09;13.90;;;6.50;;
57309;SDS011;43153;50.984;18.204;2023-08-24T05:50:36;12.80;;;5.30;;
57309;SDS011;43153;50.984;18.204;2023-08-24T05:53:03;10.40;;;5.50;;
57309;SDS011;43153;50.984;18.204;2023-08-24T05:55:29;14.50;;;6.60;;
57309;SDS011;43153;50.984;18.204;2023-08-24T05:57:55;13.60;;;6.40;;
57309;SDS011;43153;50.984;18.204;2023-08-24T06:00:21;20.00;;;7.50;;
57309;SDS011;43153;50.984;18.204;2023-08-24T06:02:48;16.40;;;7.60;;
57309;SDS011;43153;50.984;18.204;2023-08-24T06:05:14;16.20;;;6.20;;
57309;SDS011;43153;50.984;18.204;2023-08-24T06:07:40;12.10;;;5.80;;
57309;SDS011;43153;50.984;18.204;2023-08-24T06:10:08;10.00;;;5.60;;
57309;SDS011;43153;50.984;18.204;2023-08-24T06:12:34;9.90;;;5.00;;
57309;SDS011;43153;50.984;18.204;2023-08-24T06:15:00;16.10;;;5.40;;
57309;SDS011;43153;50.984;18.204;2023-08-24T06:17:29;15.60;;;5.80;;
57309;SDS011;43153;50.984;18.204;2023-08-24T06:19:55;12.20;;;5.00;;
57309;SDS011;43153;50.984;18.204;2023-08-24T06:22:21;12.40;;;5.10;;
57309;SDS011;43153;50.984;18.204;2023-08-24T06:24:47;13.90;;;5.40;;
57309;SDS011;43153;50.984;18.204;2023-08-24T06:27:13;11.60;;;5.20;;
57309;SDS011;43153;50.984;18.204;2023-08-24T06:29:42;11.50;;;5.50;;
57309;SDS011;43153;50.984;18.204;2023-08-24T06:32:09;13.10;;;4.90;;
57309;SDS011;43153;50.984;18.204;2023-08-24T06:34:36;11.60;;;4.60;;
57309;SDS011;43153;50.984;18.204;2023-08-24T06:37:02;12.70;;;5.00;;
57309;SDS011;43153;50.984;18.204;2023-08-24T06:39:29;10.30;;;4.70;;
57309;SDS011;43153;50.984;18.204;2023-08-24T06:41:55;11.30;;;4.60;;
57309;SDS011;43153;50.984;18.204;2023-08-24T06:44:21;10.60;;;4.70;;
57309;SDS011;43153;50.984;18.204;2023-08-24T06:46:47;8.80;;;4.80;;
57309;SDS011;43153;50.984;18.204;2023-08-24T06:49:13;12.60;;;5.30;;
57309;SDS011;43153;50.984;18.204;2023-08-24T06:51:38;9.90;;;5.20;;
57309;SDS011;43153;50.984;18.204;2023-08-24T06:54:04;10.10;;;5.30;;
57309;SDS011;43153;50.984;18.204;2023-08-24T06:56:30;15.90;;;5.50;;
57309;SDS011;43153;50.984;18.204;2023-08-24T06:58:57;13.90;;;5.40;;
57309;SDS011;43153;50.984;18.204;2023-08-24T07:01:23;13.00;;;5.00;;
57309;SDS011;43153;50.984;18.204;2023-08-24T07:03:51;13.30;;;4.30;;
57309;SDS011;43153;50.984;18.204;2023-08-24T07:06:18;11.00;;;4.50;;
57309;SDS011;43153;50.984;18.204;2023-08-24T07:08:45;8.90;;;4.10;;
57309;SDS011;43153;50.984;18.204;2023-08-24T07:11:11;9.30;;;4.00;;
57309;SDS011;43153;50.984;18.204;2023-08-24T07:13:39;11.20;;;4.10;;
57309;SDS011;43153;50.984;18.204;2023-08-24T07:16:05;14.50;;;4.40;;
57309;SDS011;43153;50.984;18.204;2023-08-24T07:18:36;17.50;;;5.20;;
57309;SDS011;43153;50.984;18.204;2023-08-24T07:21:01;11.50;;;3.80;;
57309;SDS011;43153;50.984;18.204;2023-08-24T07:23:29;9.80;;;3.70;;
57309;SDS011;43153;50.984;18.204;2023-08-24T07:25:56;14.20;;;4.20;;
57309;SDS011;43153;50.984;18.204;2023-08-24T07:28:23;8.70;;;4.10;;
57309;SDS011;43153;50.984;18.204;2023-08-24T07:30:51;9.60;;;4.40;;
57309;SDS011;43153;50.984;18.204;2023-08-24T07:33:21;9.70;;;4.00;;
57309;SDS011;43153;50.984;18.204;2023-08-24T07:35:47;10.50;;;3.90;;
57309;SDS011;43153;50.984;18.204;2023-08-24T07:38:13;14.60;;;4.20;;
57309;SDS011;43153;50.984;18.204;2023-08-24T07:40:39;9.50;;;3.90;;
57309;SDS011;43153;50.984;18.204;2023-08-24T07:43:05;8.50;;;3.70;;
57309;SDS011;43153;50.984;18.204;2023-08-24T07:45:31;8.50;;;3.80;;
57309;SDS011;43153;50.984;18.204;2023-08-24T07:47:56;10.20;;;3.50;;
57309;SDS011;43153;50.984;18.204;2023-08-24T07:50:22;14.50;;;3.70;;
57309;SDS011;43153;50.984;18.204;2023-08-24T07:52:49;9.60;;;3.50;;
57309;SDS011;43153;50.984;18.204;2023-08-24T07:55:14;9.40;;;3.40;;
57309;SDS011;43153;50.984;18.204;2023-08-24T07:57:41;6.00;;;3.00;;
57309;SDS011;43153;50.984;18.204;2023-08-24T08:00:07;6.10;;;2.50;;
57309;SDS011;43153;50.984;18.204;2023-08-24T08:02:35;6.90;;;3.00;;
57309;SDS011;43153;50.984;18.204;2023-08-24T08:05:02;11.80;;;3.30;;
57309;SDS011;43153;50.984;18.204;2023-08-24T08:07:29;9.80;;;3.40;;
57309;SDS011;43153;50.984;18.204;2023-08-24T08:09:54;6.80;;;3.00;;
57309;SDS011;43153;50.984;18.204;2023-08-24T08:12:21;8.20;;;3.00;;
57309;SDS011;43153;50.984;18.204;2023-08-24T08:14:47;11.20;;;3.50;;
57309;SDS011;43153;50.984;18.204;2023-08-24T08:17:13;10.60;;;2.90;;
57309;SDS011;43153;50.984;18.204;2023-08-24T08:19:40;10.90;;;3.60;;
57309;SDS011;43153;50.984;18.204;2023-08-24T08:22:06;11.50;;;3.40;;
57309;SDS011;43153;50.984;18.204;2023-08-24T08:24:32;9.20;;;2.50;;
57309;SDS011;43153;50.984;18.204;2023-08-24T08:26:59;4.70;;;2.20;;
57309;SDS011;43153;50.984;18.204;2023-08-24T08:29:26;4.70;;;1.90;;
57309;SDS011;43153;50.984;18.204;2023-08-24T08:31:52;5.70;;;1.80;;
57309;SDS011;43153;50.984;18.204;2023-08-24T08:34:19;10.80;;;1.90;;
57309;SDS011;43153;50.984;18.204;2023-08-24T08:36:44;7.60;;;2.20;;
57309;SDS011;43153;50.984;18.204;2023-08-24T08:39:10;8.40;;;2.50;;
57309;SDS011;43153;50.984;18.204;2023-08-24T08:41:38;5.70;;;1.90;;
57309;SDS011;43153;50.984;18.204;2023-08-24T08:44:08;7.10;;;2.60;;
57309;SDS011;43153;50.984;18.204;2023-08-24T08:46:35;5.90;;;2.10;;
57309;SDS011;43153;50.984;18.204;2023-08-24T08:49:02;9.30;;;2.40;;
57309;SDS011;43153;50.984;18.204;2023-08-24T08:51:31;6.20;;;2.50;;
57309;SDS011;43153;50.984;18.204;2023-08-24T08:54:03;6.30;;;2.00;;
57309;SDS011;43153;50.984;18.204;2023-08-24T08:56:35;7.90;;;2.40;;
57309;SDS011;43153;50.984;18.204;2023-08-24T08:59:01;6.40;;;2.80;;
57309;SDS011;43153;50.984;18.204;2023-08-24T09:01:28;5.10;;;2.40;;
57309;SDS011;43153;50.984;18.204;2023-08-24T09:03:54;6.90;;;2.40;;
57309;SDS011;43153;50.984;18.204;2023-08-24T09:06:23;6.80;;;2.10;;
57309;SDS011;43153;50.984;18.204;2023-08-24T09:08:50;5.30;;;2.40;;
57309;SDS011;43153;50.984;18.204;2023-08-24T09:11:16;5.90;;;1.50;;
57309;SDS011;43153;50.984;18.204;2023-08-24T09:13:45;8.20;;;2.10;;
57309;SDS011;43153;50.984;18.204;2023-08-24T09:16:11;4.10;;;2.00;;
57309;SDS011;43153;50.984;18.204;2023-08-24T09:18:43;9.30;;;3.20;;
57309;SDS011;43153;50.984;18.204;2023-08-24T09:21:13;4.80;;;1.80;;
57309;SDS011;43153;50.984;18.204;2023-08-24T09:23:44;5.40;;;1.80;;
57309;SDS011;43153;50.984;18.204;2023-08-24T09:26:29;3.90;;;1.80;;
57309;SDS011;43153;50.984;18.204;2023-08-24T09:28:56;7.20;;;1.90;;
57309;SDS011;43153;50.984;18.204;2023-08-24T09:31:35;6.70;;;1.70;;
57309;SDS011;43153;50.984;18.204;2023-08-24T09:34:06;5.20;;;1.90;;
57309;SDS011;43153;50.984;18.204;2023-08-24T09:36:33;6.70;;;1.60;;
57309;SDS011;43153;50.984;18.204;2023-08-24T09:39:01;6.40;;;1.80;;
57309;SDS011;43153;50.984;18.204;2023-08-24T09:41:39;4.70;;;1.80;;
57309;SDS011;43153;50.984;18.204;2023-08-24T09:44:06;6.90;;;2.50;;
57309;SDS011;43153;50.984;18.204;2023-08-24T10:25:52;5.70;;;1.80;;
57309;SDS011;43153;50.984;18.204;2023-08-24T10:28:19;3.40;;;1.40;;
57309;SDS011;43153;50.984;18.204;2023-08-24T10:30:46;8.30;;;1.80;;
57309;SDS011;43153;50.984;18.204;2023-08-24T10:33:18;5.70;;;1.60;;
57309;SDS011;43153;50.984;18.204;2023-08-24T10:35:49;5.40;;;2.20;;
57309;SDS011;43153;50.984;18.204;2023-08-24T10:38:31;5.30;;;1.50;;
57309;SDS011;43153;50.984;18.204;2023-08-24T10:41:02;4.10;;;1.40;;
57309;SDS011;43153;50.984;18.204;2023-08-24T10:43:36;8.30;;;1.90;;
57309;SDS011;43153;50.984;18.204;2023-08-24T10:46:03;4.60;;;1.40;;
57309;SDS011;43153;50.984;18.204;2023-08-24T10:51:19;4.20;;;1.40;;
57309;SDS011;43153;50.984;18.204;2023-08-24T10:54:08;3.30;;;1.30;;
57309;SDS011;43153;50.984;18.204;2023-08-24T10:56:37;6.10;;;1.90;;
57309;SDS011;43153;50.984;18.204;2023-08-24T11:01:42;4.10;;;1.50;;
57309;SDS011;43153;50.984;18.204;2023-08-24T11:04:29;3.90;;;1.30;;
57309;SDS011;43153;50.984;18.204;2023-08-24T11:06:58;6.70;;;1.50;;
57309;SDS011;43153;50.984;18.204;2023-08-24T11:09:44;5.40;;;1.60;;
57309;SDS011;43153;50.984;18.204;2023-08-24T11:12:15;4.50;;;1.30;;
57309;SDS011;43153;50.984;18.204;2023-08-24T11:14:53;5.50;;;1.40;;
57309;SDS011;43153;50.984;18.204;2023-08-24T11:17:32;4.80;;;1.80;;
57309;SDS011;43153;50.984;18.204;2023-08-24T11:20:03;3.80;;;1.40;;
57309;SDS011;43153;50.984;18.204;2023-08-24T11:22:30;5.40;;;1.40;;
57309;SDS011;43153;50.984;18.204;2023-08-24T11:25:00;3.40;;;1.30;;
57309;SDS011;43153;50.984;18.204;2023-08-24T11:27:26;7.70;;;2.20;;
57309;SDS011;43153;50.984;18.204;2023-08-24T11:30:00;5.00;;;1.40;;
57309;SDS011;43153;50.984;18.204;2023-08-24T11:32:31;8.00;;;1.70;;
57309;SDS011;43153;50.984;18.204;2023-08-24T11:35:00;6.50;;;1.90;;
57309;SDS011;43153;50.984;18.204;2023-08-24T11:37:27;8.70;;;1.60;;
57309;SDS011;43153;50.984;18.204;2023-08-24T11:39:55;5.80;;;1.70;;
57309;SDS011;43153;50.984;18.204;2023-08-24T11:42:35;3.30;;;1.50;;
57309;SDS011;43153;50.984;18.204;2023-08-24T11:45:02;4.50;;;1.50;;
57309;SDS011;43153;50.984;18.204;2023-08-24T11:47:43;5.80;;;1.60;;
57309;SDS011;43153;50.984;18.204;2023-08-24T11:50:10;5.60;;;1.50;;
57309;SDS011;43153;50.984;18.204;2023-08-24T11:55:07;9.50;;;1.50;;
57309;SDS011;43153;50.984;18.204;2023-08-24T11:57:34;5.60;;;1.20;;
57309;SDS011;43153;50.984;18.204;2023-08-24T12:00:03;3.80;;;1.40;;
57309;SDS011;43153;50.984;18.204;2023-08-24T12:02:31;4.70;;;1.60;;
57309;SDS011;43153;50.984;18.204;2023-08-24T12:04:58;6.40;;;2.10;;
57309;SDS011;43153;50.984;18.204;2023-08-24T12:07:24;7.90;;;1.30;;
57309;SDS011;43153;50.984;18.204;2023-08-24T12:09:51;3.80;;;1.40;;
57309;SDS011;43153;50.984;18.204;2023-08-24T12:12:20;4.30;;;1.80;;
57309;SDS011;43153;50.984;18.204;2023-08-24T12:14:49;8.00;;;2.10;;
57309;SDS011;43153;50.984;18.204;2023-08-24T12:17:16;5.70;;;1.50;;
57309;SDS011;43153;50.984;18.204;2023-08-24T12:19:56;6.70;;;1.20;;
57309;SDS011;43153;50.984;18.204;2023-08-24T12:22:26;5.50;;;1.40;;
57309;SDS011;43153;50.984;18.204;2023-08-24T12:24:53;5.00;;;1.30;;
57309;SDS011;43153;50.984;18.204;2023-08-24T12:27:22;3.60;;;1.20;;
57309;SDS011;43153;50.984;18.204;2023-08-24T12:29:59;6.10;;;1.70;;
57309;SDS011;43153;50.984;18.204;2023-08-24T12:32:47;5.10;;;1.40;;
57309;SDS011;43153;50.984;18.204;2023-08-24T12:35:16;10.20;;;1.60;;
57309;SDS011;43153;50.984;18.204;2023-08-24T12:37:43;4.00;;;1.40;;
57309;SDS011;43153;50.984;18.204;2023-08-24T12:40:08;4.90;;;1.30;;
57309;SDS011;43153;50.984;18.204;2023-08-24T12:42:36;4.00;;;1.60;;
57309;SDS011;43153;50.984;18.204;2023-08-24T12:45:02;5.80;;;1.70;;
57309;SDS011;43153;50.984;18.204;2023-08-24T12:47:31;4.80;;;1.60;;
57309;SDS011;43153;50.984;18.204;2023-08-24T12:49:58;4.00;;;1.40;;
57309;SDS011;43153;50.984;18.204;2023-08-24T12:52:23;9.40;;;1.80;;
57309;SDS011;43153;50.984;18.204;2023-08-24T12:54:51;10.00;;;2.30;;
57309;SDS011;43153;50.984;18.204;2023-08-24T12:57:17;5.30;;;1.50;;
57309;SDS011;43153;50.984;18.204;2023-08-24T12:59:45;7.30;;;1.60;;
57309;SDS011;43153;50.984;18.204;2023-08-24T13:02:12;6.60;;;1.60;;
57309;SDS011;43153;50.984;18.204;2023-08-24T13:04:38;3.30;;;1.30;;
57309;SDS011;43153;50.984;18.204;2023-08-24T13:07:05;4.90;;;1.60;;
57309;SDS011;43153;50.984;18.204;2023-08-24T13:09:31;4.30;;;1.20;;
57309;SDS011;43153;50.984;18.204;2023-08-24T13:12:02;10.70;;;1.90;;
57309;SDS011;43153;50.984;18.204;2023-08-24T13:14:28;4.70;;;1.40;;
57309;SDS011;43153;50.984;18.204;2023-08-24T13:16:55;6.20;;;1.30;;
57309;SDS011;43153;50.984;18.204;2023-08-24T13:19:24;3.50;;;1.20;;
57309;SDS011;43153;50.984;18.204;2023-08-24T13:21:51;9.00;;;1.80;;
57309;SDS011;43153;50.984;18.204;2023-08-24T13:24:17;4.60;;;1.60;;
57309;SDS011;43153;50.984;18.204;2023-08-24T13:26:43;4.30;;;1.60;;
57309;SDS011;43153;50.984;18.204;2023-08-24T13:29:09;5.30;;;1.60;;
57309;SDS011;43153;50.984;18.204;2023-08-24T13:31:35;5.80;;;2.20;;
57309;SDS011;43153;50.984;18.204;2023-08-24T13:34:01;5.80;;;1.60;;
57309;SDS011;43153;50.984;18.204;2023-08-24T13:36:30;5.20;;;1.90;;
57309;SDS011;43153;50.984;18.204;2023-08-24T13:38:57;7.20;;;1.90;;
57309;SDS011;43153;50.984;18.204;2023-08-24T13:41:23;6.10;;;1.70;;
57309;SDS011;43153;50.984;18.204;2023-08-24T13:43:49;4.20;;;1.40;;
57309;SDS011;43153;50.984;18.204;2023-08-24T13:46:14;6.90;;;1.70;;
57309;SDS011;43153;50.984;18.204;2023-08-24T13:48:41;4.30;;;1.50;;
57309;SDS011;43153;50.984;18.204;2023-08-24T13:51:07;3.30;;;1.20;;
57309;SDS011;43153;50.984;18.204;2023-08-24T13:53:37;3.20;;;1.30;;
57309;SDS011;43153;50.984;18.204;2023-08-24T13:56:04;3.20;;;1.40;;
57309;SDS011;43153;50.984;18.204;2023-08-24T13:58:32;5.70;;;1.40;;
57309;SDS011;43153;50.984;18.204;2023-08-24T14:00:58;5.70;;;1.20;;
57309;SDS011;43153;50.984;18.204;2023-08-24T14:03:24;4.60;;;1.30;;
57309;SDS011;43153;50.984;18.204;2023-08-24T14:06:00;4.50;;;1.20;;
57309;SDS011;43153;50.984;18.204;2023-08-24T14:08:25;5.70;;;1.30;;
57309;SDS011;43153;50.984;18.204;2023-08-24T14:10:52;6.80;;;1.10;;
57309;SDS011;43153;50.984;18.204;2023-08-24T14:13:19;4.60;;;1.30;;
57309;SDS011;43153;50.984;18.204;2023-08-24T14:15:48;4.10;;;1.10;;
57309;SDS011;43153;50.984;18.204;2023-08-24T14:18:18;6.10;;;2.00;;
57309;SDS011;43153;50.984;18.204;2023-08-24T14:20:44;4.30;;;1.40;;
57309;SDS011;43153;50.984;18.204;2023-08-24T14:23:13;4.20;;;1.40;;
57309;SDS011;43153;50.984;18.204;2023-08-24T14:25:39;5.10;;;1.50;;
57309;SDS011;43153;50.984;18.204;2023-08-24T14:28:07;5.30;;;1.10;;
57309;SDS011;43153;50.984;18.204;2023-08-24T14:30:36;3.70;;;1.30;;
57309;SDS011;43153;50.984;18.204;2023-08-24T14:33:02;3.70;;;1.20;;
57309;SDS011;43153;50.984;18.204;2023-08-24T14:35:32;5.20;;;1.60;;
57309;SDS011;43153;50.984;18.204;2023-08-24T14:37:58;4.60;;;1.00;;
57309;SDS011;43153;50.984;18.204;2023-08-24T14:40:24;7.80;;;1.20;;
57309;SDS011;43153;50.984;18.204;2023-08-24T14:42:51;10.10;;;1.70;;
57309;SDS011;43153;50.984;18.204;2023-08-24T14:45:19;7.40;;;1.40;;
57309;SDS011;43153;50.984;18.204;2023-08-24T14:47:45;9.20;;;1.60;;
57309;SDS011;43153;50.984;18.204;2023-08-24T14:50:11;3.70;;;1.10;;
57309;SDS011;43153;50.984;18.204;2023-08-24T14:52:37;4.50;;;1.10;;
57309;SDS011;43153;50.984;18.204;2023-08-24T14:55:06;3.40;;;1.20;;
57309;SDS011;43153;50.984;18.204;2023-08-24T14:57:36;3.80;;;1.20;;
57309;SDS011;43153;50.984;18.204;2023-08-24T15:00:03;4.90;;;1.70;;
57309;SDS011;43153;50.984;18.204;2023-08-24T15:02:30;8.00;;;2.00;;
57309;SDS011;43153;50.984;18.204;2023-08-24T15:04:58;6.00;;;2.20;;
57309;SDS011;43153;50.984;18.204;2023-08-24T15:07:28;8.30;;;1.70;;
57309;SDS011;43153;50.984;18.204;2023-08-24T15:09:54;7.10;;;1.40;;
57309;SDS011;43153;50.984;18.204;2023-08-24T15:12:20;4.10;;;1.40;;
57309;SDS011;43153;50.984;18.204;2023-08-24T15:15:01;5.20;;;1.30;;
57309;SDS011;43153;50.984;18.204;2023-08-24T15:17:30;4.00;;;1.20;;
57309;SDS011;43153;50.984;18.204;2023-08-24T15:19:57;5.30;;;1.30;;
57309;SDS011;43153;50.984;18.204;2023-08-24T15:22:25;5.50;;;1.50;;
57309;SDS011;43153;50.984;18.204;2023-08-24T15:24:54;3.70;;;1.50;;
57309;SDS011;43153;50.984;18.204;2023-08-24T15:27:20;8.30;;;1.20;;
57309;SDS011;43153;50.984;18.204;2023-08-24T15:29:47;7.40;;;1.40;;